sensor_id;sensor_type;location;lat;lon;timestamp;pressure;altitude;pressure_sealevel;temperature;humidity
33795;BME280;51430;52.242;21.118;2023-11-21T00:02:12;99660.13;;;1.38;100.00
33795;BME280;51430;52.242;21.118;2023-11-21T00:04:40;99659.69;;;1.40;100.00
33795;BME280;51430;52.242;21.118;2023-11-21T00:07:09;99661.42;;;1.39;100.00
33795;BME280;51430;52.242;21.118;2023-11-21T00:09:38;99663.17;;;1.32;100.00
33795;BME280;51430;52.242;21.118;2023-11-21T00:12:07;99666.14;;;1.34;100.00
33795;BME280;51430;52.242;21.118;2023-11-21T00:14:37;99670.46;;;1.30;100.00
33795;BME280;51430;52.242;21.118;2023-11-21T00:17:06;99671.23;;;1.32;100.00
33795;BME280;51430;52.242;21.118;2023-11-21T00:19:34;99672.20;;;1.40;100.00
33795;BME280;51430;52.242;21.118;2023-11-21T00:22:03;99677.89;;;1.43;100.00
33795;BME280;51430;52.242;21.118;2023-11-21T00:24:30;99678.84;;;1.45;100.00
33795;BME280;51430;52.242;21.118;2023-11-21T00:27:00;99682.90;;;1.46;100.00
33795;BME280;51430;52.242;21.118;2023-11-21T00:29:27;99687.89;;;1.42;100.00
33795;BME280;51430;52.242;21.118;2023-11-21T00:31:55;99689.25;;;1.43;100.00
33795;BME280;51430;52.242;21.118;2023-11-21T00:34:23;99694.25;;;1.39;100.00
33795;BME280;51430;52.242;21.118;2023-11-21T00:36:51;99697.75;;;1.27;100.00
33795;BME280;51430;52.242;21.118;2023-11-21T00:39:20;99697.70;;;1.21;100.00
33795;BME280;51430;52.242;21.118;2023-11-21T00:41:47;99697.55;;;1.24;100.00
33795;BME280;51430;52.242;21.118;2023-11-21T00:44:16;99696.55;;;1.27;100.00
33795;BME280;51430;52.242;21.118;2023-11-21T00:46:45;99698.45;;;1.23;100.00
33795;BME280;51430;52.242;21.118;2023-11-21T00:49:13;99702.09;;;1.12;100.00
33795;BME280;51430;52.242;21.118;2023-11-21T00:51:41;99703.84;;;1.11;100.00
33795;BME280;51430;52.242;21.118;2023-11-21T00:54:08;99702.80;;;1.15;100.00
33795;BME280;51430;52.242;21.118;2023-11-21T00:56:36;99707.13;;;1.18;100.00
33795;BME280;51430;52.242;21.118;2023-11-21T00:59:04;99704.79;;;1.09;100.00
33795;BME280;51430;52.242;21.118;2023-11-21T01:01:33;99704.63;;;1.13;100.00
33795;BME280;51430;52.242;21.118;2023-11-21T01:04:01;99706.89;;;1.16;100.00
33795;BME280;51430;52.242;21.118;2023-11-21T01:06:29;99711.27;;;1.17;100.00
33795;BME280;51430;52.242;21.118;2023-11-21T01:08:57;99713.21;;;1.20;100.00
33795;BME280;51430;52.242;21.118;2023-11-21T01:11:25;99716.34;;;1.16;100.00
33795;BME280;51430;52.242;21.118;2023-11-21T01:13:53;99714.41;;;1.13;100.00
33795;BME280;51430;52.242;21.118;2023-11-21T01:16:21;99710.35;;;1.18;100.00
33795;BME280;51430;52.242;21.118;2023-11-21T01:18:50;99714.32;;;1.01;100.00
33795;BME280;51430;52.242;21.118;2023-11-21T01:21:18;99718.24;;;0.82;100.00
33795;BME280;51430;52.242;21.118;2023-11-21T01:23:47;99723.34;;;0.91;100.00
33795;BME280;51430;52.242;21.118;2023-11-21T01:26:15;99721.92;;;0.95;100.00
33795;BME280;51430;52.242;21.118;2023-11-21T01:28:43;99726.58;;;1.06;100.00
33795;BME280;51430;52.242;21.118;2023-11-21T01:31:11;99728.81;;;1.02;99.91
33795;BME280;51430;52.242;21.118;2023-11-21T01:33:39;99723.91;;;1.04;99.75
33795;BME280;51430;52.242;21.118;2023-11-21T01:36:07;99726.66;;;1.08;99.67
33795;BME280;51430;52.242;21.118;2023-11-21T01:38:35;99729.27;;;1.10;99.45
33795;BME280;51430;52.242;21.118;2023-11-21T01:41:04;99729.77;;;1.11;99.34
33795;BME280;51430;52.242;21.118;2023-11-21T01:43:32;99731.10;;;1.08;99.41
33795;BME280;51430;52.242;21.118;2023-11-21T01:46:00;99730.05;;;1.09;99.42
33795;BME280;51430;52.242;21.118;2023-11-21T01:48:28;99732.84;;;1.11;99.54
33795;BME280;51430;52.242;21.118;2023-11-21T01:50:57;99731.28;;;1.12;99.65
33795;BME280;51430;52.242;21.118;2023-11-21T01:53:25;99731.64;;;0.97;99.61
33795;BME280;51430;52.242;21.118;2023-11-21T01:55:55;99731.08;;;1.05;99.86
33795;BME280;51430;52.242;21.118;2023-11-21T01:58:25;99733.91;;;1.07;100.00
33795;BME280;51430;52.242;21.118;2023-11-21T02:00:54;99732.30;;;1.09;100.00
33795;BME280;51430;52.242;21.118;2023-11-21T02:03:22;99735.95;;;1.07;99.81
33795;BME280;51430;52.242;21.118;2023-11-21T02:05:53;99736.25;;;1.05;99.83
33795;BME280;51430;52.242;21.118;2023-11-21T02:08:21;99736.07;;;1.08;99.98
33795;BME280;51430;52.242;21.118;2023-11-21T02:10:56;99740.77;;;1.11;99.96
33795;BME280;51430;52.242;21.118;2023-11-21T02:13:25;99736.20;;;1.13;99.57
33795;BME280;51430;52.242;21.118;2023-11-21T02:15:53;99742.10;;;1.12;99.28
33795;BME280;51430;52.242;21.118;2023-11-21T02:18:22;99741.48;;;1.10;98.91
33795;BME280;51430;52.242;21.118;2023-11-21T02:20:50;99740.31;;;1.06;98.88
33795;BME280;51430;52.242;21.118;2023-11-21T02:23:18;99740.59;;;1.03;98.96
33795;BME280;51430;52.242;21.118;2023-11-21T02:25:47;99745.36;;;1.04;99.26
33795;BME280;51430;52.242;21.118;2023-11-21T02:28:15;99748.90;;;1.02;99.33
33795;BME280;51430;52.242;21.118;2023-11-21T02:31:10;99749.73;;;0.92;99.27
33795;BME280;51430;52.242;21.118;2023-11-21T02:33:40;99753.09;;;0.97;99.26
33795;BME280;51430;52.242;21.118;2023-11-21T02:36:08;99750.65;;;0.98;99.30
33795;BME280;51430;52.242;21.118;2023-11-21T02:38:36;99756.64;;;0.94;99.36
33795;BME280;51430;52.242;21.118;2023-11-21T02:41:04;99756.24;;;0.95;99.45
33795;BME280;51430;52.242;21.118;2023-11-21T02:43:32;99756.94;;;0.99;99.22
33795;BME280;51430;52.242;21.118;2023-11-21T02:46:00;99758.48;;;1.03;99.29
33795;BME280;51430;52.242;21.118;2023-11-21T02:48:28;99760.51;;;1.03;99.30
33795;BME280;51430;52.242;21.118;2023-11-21T02:50:56;99760.20;;;1.06;99.15
33795;BME280;51430;52.242;21.118;2023-11-21T02:53:24;99763.03;;;1.04;98.99
33795;BME280;51430;52.242;21.118;2023-11-21T02:55:52;99761.05;;;1.06;99.06
33795;BME280;51430;52.242;21.118;2023-11-21T02:58:20;99760.88;;;1.03;99.08
33795;BME280;51430;52.242;21.118;2023-11-21T03:00:48;99760.03;;;0.95;99.36
33795;BME280;51430;52.242;21.118;2023-11-21T03:03:16;99761.92;;;0.88;99.63
33795;BME280;51430;52.242;21.118;2023-11-21T03:05:44;99760.27;;;0.94;99.77
33795;BME280;51430;52.242;21.118;2023-11-21T03:08:12;99762.73;;;0.96;99.77
33795;BME280;51430;52.242;21.118;2023-11-21T03:10:40;99761.34;;;0.97;99.85
33795;BME280;51430;52.242;21.118;2023-11-21T03:13:08;99765.36;;;0.99;99.84
33795;BME280;51430;52.242;21.118;2023-11-21T03:15:36;99767.06;;;1.02;99.26
33795;BME280;51430;52.242;21.118;2023-11-21T03:18:05;99772.09;;;0.98;99.07
33795;BME280;51430;52.242;21.118;2023-11-21T03:20:33;99767.17;;;0.93;99.31
33795;BME280;51430;52.242;21.118;2023-11-21T03:23:02;99771.30;;;0.85;99.60
33795;BME280;51430;52.242;21.118;2023-11-21T03:25:31;99774.46;;;0.87;99.45
33795;BME280;51430;52.242;21.118;2023-11-21T03:27:59;99777.89;;;0.87;99.33
33795;BME280;51430;52.242;21.118;2023-11-21T03:30:28;99783.40;;;0.83;99.62
33795;BME280;51430;52.242;21.118;2023-11-21T03:32:56;99781.51;;;0.91;99.80
33795;BME280;51430;52.242;21.118;2023-11-21T03:35:24;99786.83;;;0.87;99.65
33795;BME280;51430;52.242;21.118;2023-11-21T03:37:52;99785.55;;;0.81;99.65
33795;BME280;51430;52.242;21.118;2023-11-21T03:40:20;99785.41;;;0.84;99.90
33795;BME280;51430;52.242;21.118;2023-11-21T03:42:49;99784.82;;;0.90;99.70
33795;BME280;51430;52.242;21.118;2023-11-21T03:45:16;99784.60;;;0.87;99.64
33795;BME280;51430;52.242;21.118;2023-11-21T03:47:45;99784.95;;;0.94;99.75
33795;BME280;51430;52.242;21.118;2023-11-21T03:50:16;99784.10;;;0.94;99.33
33795;BME280;51430;52.242;21.118;2023-11-21T03:52:44;99786.90;;;0.93;99.40
33795;BME280;51430;52.242;21.118;2023-11-21T03:55:12;99793.47;;;0.92;99.25
33795;BME280;51430;52.242;21.118;2023-11-21T03:57:40;99794.94;;;0.86;99.22
33795;BME280;51430;52.242;21.118;2023-11-21T04:00:09;99803.79;;;0.80;99.43
33795;BME280;51430;52.242;21.118;2023-11-21T04:02:40;99801.13;;;0.74;99.52
33795;BME280;51430;52.242;21.118;2023-11-21T04:05:09;99804.86;;;0.71;99.45
33795;BME280;51430;52.242;21.118;2023-11-21T04:07:37;99810.77;;;0.66;99.83
33795;BME280;51430;52.242;21.118;2023-11-21T04:10:07;99809.48;;;0.72;100.00
33795;BME280;51430;52.242;21.118;2023-11-21T04:12:36;99809.48;;;0.71;100.00
33795;BME280;51430;52.242;21.118;2023-11-21T04:15:05;99811.47;;;0.69;100.00
33795;BME280;51430;52.242;21.118;2023-11-21T04:17:33;99814.46;;;0.68;100.00
33795;BME280;51430;52.242;21.118;2023-11-21T04:20:01;99814.88;;;0.74;100.00
33795;BME280;51430;52.242;21.118;2023-11-21T04:22:29;99816.98;;;0.81;100.00
33795;BME280;51430;52.242;21.118;2023-11-21T04:24:56;99811.21;;;0.87;100.00
33795;BME280;51430;52.242;21.118;2023-11-21T04:27:24;99819.72;;;0.88;100.00
33795;BME280;51430;52.242;21.118;2023-11-21T04:29:52;99822.64;;;0.88;99.90
33795;BME280;51430;52.242;21.118;2023-11-21T04:32:22;99820.80;;;0.79;99.94
33795;BME280;51430;52.242;21.118;2023-11-21T04:34:50;99820.74;;;0.77;100.00
33795;BME280;51430;52.242;21.118;2023-11-21T04:37:18;99818.59;;;0.83;100.00
33795;BME280;51430;52.242;21.118;2023-11-21T04:39:46;99820.27;;;0.83;100.00
33795;BME280;51430;52.242;21.118;2023-11-21T04:42:15;99821.47;;;0.80;100.00
33795;BME280;51430;52.242;21.118;2023-11-21T04:44:43;99820.36;;;0.78;100.00
33795;BME280;51430;52.242;21.118;2023-11-21T04:47:12;99822.95;;;0.77;100.00
33795;BME280;51430;52.242;21.118;2023-11-21T04:49:43;99825.52;;;0.77;100.00
33795;BME280;51430;52.242;21.118;2023-11-21T04:52:13;99834.14;;;0.76;100.00
33795;BME280;51430;52.242;21.118;2023-11-21T04:54:41;99837.81;;;0.79;100.00
33795;BME280;51430;52.242;21.118;2023-11-21T04:57:09;99840.54;;;0.79;100.00
33795;BME280;51430;52.242;21.118;2023-11-21T04:59:37;99839.69;;;0.83;100.00
33795;BME280;51430;52.242;21.118;2023-11-21T05:02:06;99842.34;;;0.81;100.00
33795;BME280;51430;52.242;21.118;2023-11-21T05:04:34;99846.05;;;0.83;100.00
33795;BME280;51430;52.242;21.118;2023-11-21T05:07:03;99847.91;;;0.83;100.00
33795;BME280;51430;52.242;21.118;2023-11-21T05:09:31;99851.08;;;0.77;100.00
33795;BME280;51430;52.242;21.118;2023-11-21T05:12:00;99850.45;;;0.80;100.00
33795;BME280;51430;52.242;21.118;2023-11-21T05:16:56;99857.48;;;0.80;99.99
33795;BME280;51430;52.242;21.118;2023-11-21T05:19:24;99864.22;;;0.56;99.90
33795;BME280;51430;52.242;21.118;2023-11-21T05:21:52;99861.20;;;0.58;99.98
33795;BME280;51430;52.242;21.118;2023-11-21T05:24:20;99860.36;;;0.58;99.98
33795;BME280;51430;52.242;21.118;2023-11-21T05:26:48;99859.21;;;0.57;99.94
33795;BME280;51430;52.242;21.118;2023-11-21T05:29:17;99866.09;;;0.60;100.00
33795;BME280;51430;52.242;21.118;2023-11-21T05:31:45;99867.56;;;0.58;100.00
33795;BME280;51430;52.242;21.118;2023-11-21T05:34:13;99868.86;;;0.67;100.00
33795;BME280;51430;52.242;21.118;2023-11-21T05:36:46;99872.80;;;0.71;100.00
33795;BME280;51430;52.242;21.118;2023-11-21T05:39:14;99877.89;;;0.76;100.00
33795;BME280;51430;52.242;21.118;2023-11-21T05:41:44;99877.70;;;0.81;99.93
33795;BME280;51430;52.242;21.118;2023-11-21T05:44:15;99883.80;;;0.78;99.96
33795;BME280;51430;52.242;21.118;2023-11-21T05:50:50;99889.05;;;0.60;100.00
33795;BME280;51430;52.242;21.118;2023-11-21T05:53:40;99892.73;;;0.70;100.00
33795;BME280;51430;52.242;21.118;2023-11-21T05:57:14;99895.86;;;0.61;100.00
33795;BME280;51430;52.242;21.118;2023-11-21T06:01:15;99901.92;;;0.48;100.00
33795;BME280;51430;52.242;21.118;2023-11-21T06:15:00;99906.44;;;0.43;100.00
33795;BME280;51430;52.242;21.118;2023-11-21T06:18:18;99920.14;;;0.43;100.00
33795;BME280;51430;52.242;21.118;2023-11-21T06:22:01;99928.27;;;0.33;100.00
33795;BME280;51430;52.242;21.118;2023-11-21T06:25:42;99934.14;;;0.32;100.00
33795;BME280;51430;52.242;21.118;2023-11-21T06:29:23;99935.19;;;0.35;100.00
33795;BME280;51430;52.242;21.118;2023-11-21T06:33:04;99927.77;;;0.28;100.00
33795;BME280;51430;52.242;21.118;2023-11-21T06:36:58;99930.10;;;0.34;100.00
33795;BME280;51430;52.242;21.118;2023-11-21T06:40:33;99936.68;;;0.37;100.00
33795;BME280;51430;52.242;21.118;2023-11-21T06:43:58;99947.17;;;0.40;100.00
33795;BME280;51430;52.242;21.118;2023-11-21T06:47:37;99953.41;;;0.38;100.00
33795;BME280;51430;52.242;21.118;2023-11-21T06:50:06;99958.68;;;0.44;100.00
33795;BME280;51430;52.242;21.118;2023-11-21T06:52:34;99961.70;;;0.58;100.00
33795;BME280;51430;52.242;21.118;2023-11-21T06:55:03;99960.45;;;0.67;100.00
33795;BME280;51430;52.242;21.118;2023-11-21T06:57:31;99961.08;;;0.76;100.00
33795;BME280;51430;52.242;21.118;2023-11-21T07:00:02;99965.80;;;0.82;100.00
33795;BME280;51430;52.242;21.118;2023-11-21T07:02:32;99964.60;;;0.86;100.00
33795;BME280;51430;52.242;21.118;2023-11-21T07:05:00;99969.77;;;0.94;99.92
33795;BME280;51430;52.242;21.118;2023-11-21T07:07:28;99971.09;;;0.87;99.76
33795;BME280;51430;52.242;21.118;2023-11-21T07:09:57;99975.99;;;0.89;99.49
33795;BME280;51430;52.242;21.118;2023-11-21T07:12:26;99980.08;;;0.97;99.33
33795;BME280;51430;52.242;21.118;2023-11-21T07:14:55;99978.62;;;0.95;98.90
33795;BME280;51430;52.242;21.118;2023-11-21T07:17:25;99974.70;;;0.90;98.92
33795;BME280;51430;52.242;21.118;2023-11-21T07:19:53;99978.81;;;0.99;98.93
33795;BME280;51430;52.242;21.118;2023-11-21T07:22:23;99980.61;;;1.05;98.81
33795;BME280;51430;52.242;21.118;2023-11-21T07:24:51;99983.66;;;1.10;98.83
33795;BME280;51430;52.242;21.118;2023-11-21T07:27:19;99987.30;;;1.12;98.46
33795;BME280;51430;52.242;21.118;2023-11-21T07:29:48;99989.86;;;1.09;98.07
33795;BME280;51430;52.242;21.118;2023-11-21T07:33:13;99993.52;;;0.92;97.90
33795;BME280;51430;52.242;21.118;2023-11-21T07:35:43;99997.45;;;0.76;98.15
33795;BME280;51430;52.242;21.118;2023-11-21T07:38:14;99996.88;;;0.90;98.44
33795;BME280;51430;52.242;21.118;2023-11-21T07:40:42;99998.38;;;0.86;98.43
33795;BME280;51430;52.242;21.118;2023-11-21T07:43:10;99996.56;;;0.93;98.07
33795;BME280;51430;52.242;21.118;2023-11-21T07:45:42;100002.67;;;0.82;97.48
33795;BME280;51430;52.242;21.118;2023-11-21T07:48:13;100000.40;;;0.83;97.54
33795;BME280;51430;52.242;21.118;2023-11-21T07:50:53;99998.58;;;0.90;97.33
33795;BME280;51430;52.242;21.118;2023-11-21T07:53:43;100000.41;;;0.87;97.42
33795;BME280;51430;52.242;21.118;2023-11-21T07:56:11;100001.42;;;0.87;97.42
33795;BME280;51430;52.242;21.118;2023-11-21T07:58:55;99998.45;;;0.93;97.33
33795;BME280;51430;52.242;21.118;2023-11-21T08:01:23;100003.08;;;0.97;97.20
33795;BME280;51430;52.242;21.118;2023-11-21T08:03:51;100000.19;;;1.00;97.27
33795;BME280;51430;52.242;21.118;2023-11-21T08:06:23;99998.00;;;1.07;97.43
33795;BME280;51430;52.242;21.118;2023-11-21T08:11:07;100001.74;;;1.16;97.22
33795;BME280;51430;52.242;21.118;2023-11-21T08:15:20;100009.07;;;1.01;97.53
33795;BME280;51430;52.242;21.118;2023-11-21T08:18:30;100016.92;;;0.90;97.91
33795;BME280;51430;52.242;21.118;2023-11-21T08:20:59;100018.83;;;0.90;98.34
33795;BME280;51430;52.242;21.118;2023-11-21T08:23:28;100019.63;;;1.07;98.42
33795;BME280;51430;52.242;21.118;2023-11-21T08:25:57;100025.00;;;1.14;97.85
33795;BME280;51430;52.242;21.118;2023-11-21T08:28:28;100026.29;;;1.20;97.31
33795;BME280;51430;52.242;21.118;2023-11-21T08:30:56;100029.33;;;1.21;97.09
33795;BME280;51430;52.242;21.118;2023-11-21T08:33:24;100033.03;;;1.27;96.88
33795;BME280;51430;52.242;21.118;2023-11-21T08:35:53;100038.84;;;1.35;96.75
33795;BME280;51430;52.242;21.118;2023-11-21T08:38:21;100039.54;;;1.38;96.92
33795;BME280;51430;52.242;21.118;2023-11-21T08:40:50;100041.46;;;1.42;96.85
33795;BME280;51430;52.242;21.118;2023-11-21T09:15:21;100062.66;;;1.25;97.31
33795;BME280;51430;52.242;21.118;2023-11-21T09:32:17;100077.54;;;1.54;96.53
33795;BME280;51430;52.242;21.118;2023-11-21T09:50:09;100070.02;;;2.06;94.71
33795;BME280;51430;52.242;21.118;2023-11-21T10:59:35;100111.31;;;1.97;91.72
33795;BME280;51430;52.242;21.118;2023-11-21T11:51:02;100133.71;;;1.84;93.98
33795;BME280;51430;52.242;21.118;2023-11-21T12:33:06;100153.02;;;1.75;92.89
33795;BME280;51430;52.242;21.118;2023-11-21T12:37:02;100158.08;;;1.49;93.85
33795;BME280;51430;52.242;21.118;2023-11-21T12:40:26;100165.30;;;1.45;94.15
33795;BME280;51430;52.242;21.118;2023-11-21T13:42:38;100223.02;;;1.40;92.50
33795;BME280;51430;52.242;21.118;2023-11-21T14:10:06;100277.58;;;1.42;93.64
33795;BME280;51430;52.242;21.118;2023-11-21T15:05:41;100354.02;;;0.96;94.38
33795;BME280;51430;52.242;21.118;2023-11-21T15:19:12;100360.71;;;0.96;94.43
33795;BME280;51430;52.242;21.118;2023-11-21T15:43:12;100379.27;;;0.38;97.51
33795;BME280;51430;52.242;21.118;2023-11-21T15:50:09;100389.83;;;0.25;97.00
33795;BME280;51430;52.242;21.118;2023-11-21T15:53:50;100394.80;;;0.19;96.94
33795;BME280;51430;52.242;21.118;2023-11-21T15:57:32;100399.33;;;0.17;97.30
33795;BME280;51430;52.242;21.118;2023-11-21T16:01:10;100402.66;;;0.25;97.45
33795;BME280;51430;52.242;21.118;2023-11-21T16:03:40;100406.82;;;0.19;96.96
33795;BME280;51430;52.242;21.118;2023-11-21T16:06:09;100408.50;;;0.31;96.73
33795;BME280;51430;52.242;21.118;2023-11-21T16:09:02;100417.98;;;0.44;96.25
33795;BME280;51430;52.242;21.118;2023-11-21T16:11:30;100425.73;;;0.43;95.48
33795;BME280;51430;52.242;21.118;2023-11-21T16:16:20;100435.02;;;0.42;95.14
33795;BME280;51430;52.242;21.118;2023-11-21T16:18:48;100441.38;;;0.36;95.58
33795;BME280;51430;52.242;21.118;2023-11-21T16:21:16;100445.92;;;0.44;95.34
33795;BME280;51430;52.242;21.118;2023-11-21T16:23:49;100447.88;;;0.42;95.08
33795;BME280;51430;52.242;21.118;2023-11-21T16:26:18;100452.40;;;0.46;94.96
33795;BME280;51430;52.242;21.118;2023-11-21T16:31:23;100459.66;;;0.39;94.71
33795;BME280;51430;52.242;21.118;2023-11-21T16:35:19;100469.35;;;0.41;95.35
33795;BME280;51430;52.242;21.118;2023-11-21T16:37:46;100475.63;;;0.32;95.27
33795;BME280;51430;52.242;21.118;2023-11-21T16:40:14;100470.14;;;0.42;95.24
33795;BME280;51430;52.242;21.118;2023-11-21T16:42:41;100467.99;;;0.51;94.91
33795;BME280;51430;52.242;21.118;2023-11-21T16:45:09;100471.91;;;0.52;94.39
33795;BME280;51430;52.242;21.118;2023-11-21T16:47:38;100475.02;;;0.51;93.96
33795;BME280;51430;52.242;21.118;2023-11-21T16:50:08;100479.38;;;0.44;93.91
33795;BME280;51430;52.242;21.118;2023-11-21T16:52:35;100487.16;;;0.47;93.80
33795;BME280;51430;52.242;21.118;2023-11-21T16:55:02;100486.33;;;0.51;93.68
33795;BME280;51430;52.242;21.118;2023-11-21T16:57:29;100489.73;;;0.41;93.41
33795;BME280;51430;52.242;21.118;2023-11-21T17:00:00;100488.27;;;0.49;93.41
33795;BME280;51430;52.242;21.118;2023-11-21T17:02:29;100490.58;;;0.57;92.88
33795;BME280;51430;52.242;21.118;2023-11-21T17:04:56;100492.52;;;0.51;92.44
33795;BME280;51430;52.242;21.118;2023-11-21T17:07:23;100493.06;;;0.50;92.78
33795;BME280;51430;52.242;21.118;2023-11-21T17:09:50;100495.98;;;0.50;92.54
33795;BME280;51430;52.242;21.118;2023-11-21T17:12:17;100498.05;;;0.50;92.65
33795;BME280;51430;52.242;21.118;2023-11-21T17:14:45;100500.70;;;0.52;92.56
33795;BME280;51430;52.242;21.118;2023-11-21T17:17:15;100496.61;;;0.51;92.56
33795;BME280;51430;52.242;21.118;2023-11-21T17:19:42;100501.67;;;0.54;92.53
33795;BME280;51430;52.242;21.118;2023-11-21T17:22:11;100502.96;;;0.56;92.33
33795;BME280;51430;52.242;21.118;2023-11-21T17:24:39;100512.27;;;0.60;92.23
33795;BME280;51430;52.242;21.118;2023-11-21T17:27:05;100518.79;;;0.60;91.99
33795;BME280;51430;52.242;21.118;2023-11-21T17:29:32;100517.23;;;0.56;91.96
33795;BME280;51430;52.242;21.118;2023-11-21T17:31:59;100524.89;;;0.57;92.44
33795;BME280;51430;52.242;21.118;2023-11-21T17:34:25;100526.45;;;0.62;92.36
33795;BME280;51430;52.242;21.118;2023-11-21T17:36:56;100527.90;;;0.54;92.39
33795;BME280;51430;52.242;21.118;2023-11-21T17:39:23;100531.50;;;0.54;92.74
33795;BME280;51430;52.242;21.118;2023-11-21T17:41:50;100535.78;;;0.60;92.82
33795;BME280;51430;52.242;21.118;2023-11-21T17:44:17;100536.42;;;0.61;92.57
33795;BME280;51430;52.242;21.118;2023-11-21T17:46:44;100541.27;;;0.65;92.50
33795;BME280;51430;52.242;21.118;2023-11-21T17:49:11;100537.41;;;0.68;92.09
33795;BME280;51430;52.242;21.118;2023-11-21T17:51:39;100536.94;;;0.61;92.07
33795;BME280;51430;52.242;21.118;2023-11-21T17:54:06;100539.06;;;0.59;92.02
33795;BME280;51430;52.242;21.118;2023-11-21T17:56:35;100538.27;;;0.62;91.83
33795;BME280;51430;52.242;21.118;2023-11-21T17:59:05;100542.63;;;0.65;91.82
33795;BME280;51430;52.242;21.118;2023-11-21T18:01:37;100550.88;;;0.60;91.53
33795;BME280;51430;52.242;21.118;2023-11-21T18:04:06;100551.10;;;0.42;91.94
33795;BME280;51430;52.242;21.118;2023-11-21T18:06:33;100555.17;;;0.43;92.52
33795;BME280;51430;52.242;21.118;2023-11-21T18:09:00;100556.10;;;0.52;92.58
33795;BME280;51430;52.242;21.118;2023-11-21T18:11:30;100563.62;;;0.58;92.42
33795;BME280;51430;52.242;21.118;2023-11-21T18:15:13;100570.10;;;0.48;92.30
33795;BME280;51430;52.242;21.118;2023-11-21T18:18:49;100574.48;;;0.40;92.78
33795;BME280;51430;52.242;21.118;2023-11-21T18:21:21;100581.85;;;0.29;92.93
33795;BME280;51430;52.242;21.118;2023-11-21T18:23:49;100586.84;;;0.34;93.01
33795;BME280;51430;52.242;21.118;2023-11-21T18:26:17;100587.75;;;0.32;92.94
33795;BME280;51430;52.242;21.118;2023-11-21T18:28:47;100589.90;;;0.46;92.74
33795;BME280;51430;52.242;21.118;2023-11-21T18:32:51;100592.92;;;0.53;92.34
33795;BME280;51430;52.242;21.118;2023-11-21T18:35:20;100602.41;;;0.35;92.87
33795;BME280;51430;52.242;21.118;2023-11-21T18:37:49;100610.13;;;0.46;92.61
33795;BME280;51430;52.242;21.118;2023-11-21T18:40:17;100610.48;;;0.45;92.33
33795;BME280;51430;52.242;21.118;2023-11-21T18:42:45;100612.67;;;0.52;92.00
33795;BME280;51430;52.242;21.118;2023-11-21T18:45:13;100612.92;;;0.55;91.20
33795;BME280;51430;52.242;21.118;2023-11-21T18:47:42;100618.72;;;0.51;90.99
33795;BME280;51430;52.242;21.118;2023-11-21T18:50:13;100622.27;;;0.53;91.31
33795;BME280;51430;52.242;21.118;2023-11-21T18:52:45;100619.25;;;0.56;91.48
33795;BME280;51430;52.242;21.118;2023-11-21T18:55:13;100618.27;;;0.55;91.07
33795;BME280;51430;52.242;21.118;2023-11-21T18:57:51;100612.52;;;0.46;91.20
33795;BME280;51430;52.242;21.118;2023-11-21T19:00:20;100609.08;;;0.30;91.54
33795;BME280;51430;52.242;21.118;2023-11-21T19:02:48;100613.42;;;0.34;91.26
33795;BME280;51430;52.242;21.118;2023-11-21T19:05:18;100618.02;;;0.34;91.39
33795;BME280;51430;52.242;21.118;2023-11-21T19:07:46;100618.48;;;0.42;91.10
33795;BME280;51430;52.242;21.118;2023-11-21T19:10:14;100622.77;;;0.42;90.43
33795;BME280;51430;52.242;21.118;2023-11-21T19:12:42;100624.80;;;0.37;90.11
33795;BME280;51430;52.242;21.118;2023-11-21T19:15:10;100628.60;;;0.36;90.15
33795;BME280;51430;52.242;21.118;2023-11-21T19:17:41;100631.75;;;0.40;89.93
33795;BME280;51430;52.242;21.118;2023-11-21T19:20:09;100634.69;;;0.39;89.79
33795;BME280;51430;52.242;21.118;2023-11-21T19:22:38;100638.34;;;0.32;90.00
33795;BME280;51430;52.242;21.118;2023-11-21T19:25:06;100644.05;;;0.36;90.07
33795;BME280;51430;52.242;21.118;2023-11-21T19:27:39;100646.65;;;0.35;89.95
33795;BME280;51430;52.242;21.118;2023-11-21T19:30:08;100646.61;;;0.36;90.01
33795;BME280;51430;52.242;21.118;2023-11-21T19:32:39;100652.23;;;0.37;89.75
33795;BME280;51430;52.242;21.118;2023-11-21T19:35:08;100652.86;;;0.33;88.95
33795;BME280;51430;52.242;21.118;2023-11-21T19:37:37;100660.29;;;0.31;88.89
33795;BME280;51430;52.242;21.118;2023-11-21T19:40:06;100662.23;;;0.36;88.58
33795;BME280;51430;52.242;21.118;2023-11-21T19:42:34;100664.40;;;0.37;88.56
33795;BME280;51430;52.242;21.118;2023-11-21T19:45:04;100670.14;;;0.17;88.56
33795;BME280;51430;52.242;21.118;2023-11-21T19:47:33;100676.45;;;0.18;89.05
33795;BME280;51430;52.242;21.118;2023-11-21T19:50:07;100682.59;;;0.19;88.83
33795;BME280;51430;52.242;21.118;2023-11-21T19:52:38;100685.32;;;0.25;88.48
33795;BME280;51430;52.242;21.118;2023-11-21T19:55:06;100684.36;;;0.23;88.13
33795;BME280;51430;52.242;21.118;2023-11-21T19:57:35;100684.48;;;0.25;88.48
33795;BME280;51430;52.242;21.118;2023-11-21T20:00:05;100688.67;;;0.22;88.21
33795;BME280;51430;52.242;21.118;2023-11-21T20:02:40;100693.05;;;0.24;88.24
33795;BME280;51430;52.242;21.118;2023-11-21T20:05:09;100698.29;;;0.34;87.76
33795;BME280;51430;52.242;21.118;2023-11-21T20:07:38;100698.17;;;0.26;87.09
33795;BME280;51430;52.242;21.118;2023-11-21T20:10:09;100703.91;;;0.29;87.44
33795;BME280;51430;52.242;21.118;2023-11-21T20:12:37;100708.70;;;0.29;87.50
33795;BME280;51430;52.242;21.118;2023-11-21T20:15:07;100719.02;;;0.28;87.33
33795;BME280;51430;52.242;21.118;2023-11-21T20:17:35;100719.95;;;0.26;87.19
33795;BME280;51430;52.242;21.118;2023-11-21T20:20:06;100723.63;;;0.28;87.65
33795;BME280;51430;52.242;21.118;2023-11-21T20:22:34;100726.73;;;0.34;87.36
33795;BME280;51430;52.242;21.118;2023-11-21T20:25:06;100732.77;;;0.14;86.86
33795;BME280;51430;52.242;21.118;2023-11-21T20:27:35;100730.73;;;0.13;87.13